Time;durP1;ratioP1;P1;durP2;ratioP2;P2;SDS_P1;SDS_P2;PMS_P1;PMS_P2;Temp;Humidity;BMP_temperature;BMP_pressure;BME280_temperature;BME280_humidity;BME280_pressure;Samples;Min_cycle;Max_cycle;Signal;HPM_P1;HPM_P2
2023/07/24 00:01:36;;;;;;;7.80;6.93;;;;;;;;;;5134513;27;20450;-69
2023/07/24 00:04:03;;;;;;;7.70;7.00;;;;;;;;;;5134422;27;20493;-69
2023/07/24 00:06:30;;;;;;;7.53;6.83;;;;;;;;;;5134221;27;20440;-69
2023/07/24 00:08:57;;;;;;;7.27;5.77;;;;;;;;;;5134122;28;20477;-69
2023/07/24 00:11:26;;;;;;;7.73;6.83;;;;;;;;;;5133877;28;20444;-69
2023/07/24 00:13:53;;;;;;;7.30;6.70;;;;;;;;;;5134098;28;20443;-69
2023/07/24 00:16:20;;;;;;;13.10;8.10;;;;;;;;;;5134224;28;20479;-69
2023/07/24 00:18:47;;;;;;;7.87;7.07;;;;;;;;;;5134186;28;20482;-69
2023/07/24 00:21:14;;;;;;;7.93;7.13;;;;;;;;;;5134119;28;20441;-69
2023/07/24 00:23:42;;;;;;;8.10;7.50;;;;;;;;;;5133626;28;20441;-70
2023/07/24 00:26:09;;;;;;;11.03;7.33;;;;;;;;;;5133790;28;20445;-69
2023/07/24 00:28:37;;;;;;;8.63;7.80;;;;;;;;;;5133713;28;20460;-70
2023/07/24 00:31:04;;;;;;;8.33;7.43;;;;;;;;;;5133993;28;20468;-70
2023/07/24 00:33:32;;;;;;;9.07;7.93;;;;;;;;;;5133912;28;20443;-70
2023/07/24 00:35:59;;;;;;;9.37;7.50;;;;;;;;;;5133535;28;20562;-69
2023/07/24 00:38:26;;;;;;;11.10;8.30;;;;;;;;;;5133526;28;20434;-70
2023/07/24 00:40:53;;;;;;;7.83;6.97;;;;;;;;;;5134338;28;20535;-70
2023/07/24 00:43:20;;;;;;;9.07;8.23;;;;;;;;;;5134269;28;20434;-70
2023/07/24 00:45:49;;;;;;;9.27;7.93;;;;;;;;;;5133850;28;20447;-70
2023/07/24 00:48:17;;;;;;;9.40;6.80;;;;;;;;;;5134188;28;20447;-70
2023/07/24 00:50:44;;;;;;;9.83;6.83;;;;;;;;;;5133436;28;20933;-70
2023/07/24 00:53:12;;;;;;;7.83;7.00;;;;;;;;;;5133861;28;20493;-70
2023/07/24 00:55:39;;;;;;;9.27;7.83;;;;;;;;;;5134128;27;20444;-70
2023/07/24 00:58:06;;;;;;;9.67;5.77;;;;;;;;;;5137466;27;20954;-70
2023/07/24 01:00:33;;;;;;;7.17;6.33;;;;;;;;;;5137458;27;20830;-70
2023/07/24 01:03:02;;;;;;;6.53;5.93;;;;;;;;;;5137808;27;20446;-70
2023/07/24 01:05:29;;;;;;;9.93;7.07;;;;;;;;;;5137406;27;20459;-70
2023/07/24 01:07:57;;;;;;;9.77;6.00;;;;;;;;;;5137875;27;20449;-70
2023/07/24 01:10:24;;;;;;;6.30;5.70;;;;;;;;;;5137357;27;20445;-70
2023/07/24 01:12:53;;;;;;;8.97;6.30;;;;;;;;;;5137078;27;20499;-71
2023/07/24 01:15:24;;;;;;;6.63;5.97;;;;;;;;;;5137280;27;20428;-70
2023/07/24 01:17:53;;;;;;;7.67;5.20;;;;;;;;;;5137157;27;20559;-70
2023/07/24 01:20:23;;;;;;;9.20;5.63;;;;;;;;;;5137034;27;20442;-70
2023/07/24 01:22:57;;;;;;;8.40;5.40;;;;;;;;;;5137305;27;20442;-70
2023/07/24 01:25:28;;;;;;;7.10;5.33;;;;;;;;;;5136624;27;20424;-70
2023/07/24 01:27:57;;;;;;;7.50;5.53;;;;;;;;;;5137143;27;20516;-70
2023/07/24 01:30:24;;;;;;;7.60;6.10;;;;;;;;;;5136836;27;20807;-70
2023/07/24 01:32:52;;;;;;;8.47;5.60;;;;;;;;;;5136806;27;20449;-70
2023/07/24 01:35:19;;;;;;;7.40;5.87;;;;;;;;;;5136838;27;20534;-70
2023/07/24 01:37:48;;;;;;;6.43;5.70;;;;;;;;;;5136684;27;20476;-70
2023/07/24 01:40:15;;;;;;;11.20;6.93;;;;;;;;;;5136419;27;20442;-70
2023/07/24 01:42:43;;;;;;;9.43;6.50;;;;;;;;;;5136995;27;20435;-70
2023/07/24 01:45:12;;;;;;;9.00;5.97;;;;;;;;;;5136703;27;20793;-70
2023/07/24 01:47:39;;;;;;;13.10;5.77;;;;;;;;;;5136788;27;20445;-70
2023/07/24 01:50:07;;;;;;;6.13;5.50;;;;;;;;;;5136261;27;20448;-70
2023/07/24 01:52:34;;;;;;;8.43;6.00;;;;;;;;;;5136579;27;20790;-70
2023/07/24 01:55:02;;;;;;;6.40;5.37;;;;;;;;;;5136531;27;20458;-70
2023/07/24 01:57:29;;;;;;;8.90;5.70;;;;;;;;;;5136374;27;20474;-70
2023/07/24 01:59:56;;;;;;;8.63;5.90;;;;;;;;;;5136021;27;20495;-70
2023/07/24 02:02:24;;;;;;;6.60;4.97;;;;;;;;;;5136126;27;20947;-71
2023/07/24 02:04:52;;;;;;;9.00;5.90;;;;;;;;;;5136694;27;20446;-71
2023/07/24 02:07:19;;;;;;;8.27;5.90;;;;;;;;;;5135970;27;20447;-70
2023/07/24 02:09:46;;;;;;;6.27;5.67;;;;;;;;;;5136051;27;20480;-71
2023/07/24 02:12:13;;;;;;;9.27;5.50;;;;;;;;;;5136267;27;20446;-70
2023/07/24 02:14:40;;;;;;;6.60;5.50;;;;;;;;;;5136569;27;20437;-71
2023/07/24 02:17:08;;;;;;;6.07;5.40;;;;;;;;;;5135755;27;20479;-70
2023/07/24 02:19:36;;;;;;;8.17;5.27;;;;;;;;;;5136287;27;20807;-72
2023/07/24 02:22:04;;;;;;;6.23;5.70;;;;;;;;;;5136185;27;20436;-71
2023/07/24 02:24:31;;;;;;;9.63;5.17;;;;;;;;;;5136497;27;20862;-71
2023/07/24 02:26:58;;;;;;;6.93;5.80;;;;;;;;;;5135920;27;20522;-71
2023/07/24 02:29:25;;;;;;;10.40;6.00;;;;;;;;;;5136192;27;20476;-71
2023/07/24 02:31:52;;;;;;;8.37;6.40;;;;;;;;;;5135713;27;20453;-71
2023/07/24 02:34:24;;;;;;;13.50;7.13;;;;;;;;;;5135813;27;20440;-71
2023/07/24 02:36:52;;;;;;;11.53;6.40;;;;;;;;;;5135800;27;20461;-70
2023/07/24 02:39:19;;;;;;;6.40;5.43;;;;;;;;;;5135423;27;20441;-71
2023/07/24 02:41:46;;;;;;;12.47;6.33;;;;;;;;;;5135252;27;20446;-70
2023/07/24 02:44:14;;;;;;;8.77;5.77;;;;;;;;;;5135838;27;20487;-71
2023/07/24 02:46:41;;;;;;;11.33;5.90;;;;;;;;;;5135514;27;20456;-71
2023/07/24 02:49:09;;;;;;;10.27;6.50;;;;;;;;;;5135574;27;20537;-71
2023/07/24 02:51:36;;;;;;;13.07;6.07;;;;;;;;;;5135376;27;20438;-71
2023/07/24 02:54:06;;;;;;;7.57;5.80;;;;;;;;;;5135113;27;20438;-70
2023/07/24 02:56:33;;;;;;;6.63;5.77;;;;;;;;;;5135547;27;20874;-70
2023/07/24 02:59:00;;;;;;;11.70;6.00;;;;;;;;;;5135130;27;20481;-71
2023/07/24 03:01:27;;;;;;;8.27;6.33;;;;;;;;;;5135387;27;20469;-70
2023/07/24 03:03:54;;;;;;;6.60;5.83;;;;;;;;;;5135380;27;20439;-71
2023/07/24 03:06:22;;;;;;;10.43;5.63;;;;;;;;;;5135132;27;20798;-71
2023/07/24 03:08:49;;;;;;;8.33;5.20;;;;;;;;;;5135310;27;20956;-71
2023/07/24 03:11:17;;;;;;;9.20;6.20;;;;;;;;;;5134685;27;20922;-71
2023/07/24 03:13:44;;;;;;;7.30;5.83;;;;;;;;;;5134972;27;20438;-70
2023/07/24 03:16:12;;;;;;;7.70;5.40;;;;;;;;;;5134998;27;20477;-71
2023/07/24 03:18:39;;;;;;;6.37;5.50;;;;;;;;;;5133859;27;20474;-71
2023/07/24 03:21:06;;;;;;;6.90;5.93;;;;;;;;;;5135306;27;20801;-70
2023/07/24 03:23:33;;;;;;;6.77;6.07;;;;;;;;;;5134531;27;20441;-70
2023/07/24 03:26:00;;;;;;;13.43;5.53;;;;;;;;;;5134845;27;20439;-71
2023/07/24 03:28:29;;;;;;;7.83;5.80;;;;;;;;;;5134782;27;20445;-70
2023/07/24 03:30:56;;;;;;;7.37;5.73;;;;;;;;;;5134360;27;20442;-70
2023/07/24 03:33:23;;;;;;;7.40;6.37;;;;;;;;;;5134325;27;20452;-70
2023/07/24 03:35:50;;;;;;;9.03;5.33;;;;;;;;;;5134205;27;20441;-70
2023/07/24 03:38:17;;;;;;;8.57;5.77;;;;;;;;;;5134919;27;20483;-71
2023/07/24 03:40:45;;;;;;;8.13;6.20;;;;;;;;;;5134215;27;20502;-70
2023/07/24 03:43:12;;;;;;;6.37;4.93;;;;;;;;;;5134209;27;20449;-69
2023/07/24 03:45:42;;;;;;;7.83;5.50;;;;;;;;;;5134204;27;20445;-69
2023/07/24 03:48:09;;;;;;;6.03;5.43;;;;;;;;;;5134500;27;20505;-69
2023/07/24 03:50:36;;;;;;;10.70;6.33;;;;;;;;;;5135182;27;20445;-69
2023/07/24 03:53:03;;;;;;;8.43;5.40;;;;;;;;;;5133152;27;20519;-70
2023/07/24 03:55:30;;;;;;;8.60;6.80;;;;;;;;;;5134611;27;20444;-70
2023/07/24 03:57:58;;;;;;;9.67;6.37;;;;;;;;;;5133672;27;20611;-70
2023/07/24 04:00:25;;;;;;;9.40;7.30;;;;;;;;;;5133872;27;20475;-70
2023/07/24 04:02:53;;;;;;;7.77;6.43;;;;;;;;;;5133694;27;20531;-70
2023/07/24 04:05:20;;;;;;;12.00;7.47;;;;;;;;;;5134112;27;20451;-71
2023/07/24 04:07:48;;;;;;;10.93;7.20;;;;;;;;;;5133757;27;20442;-70
2023/07/24 04:10:15;;;;;;;13.63;6.93;;;;;;;;;;5134285;28;20442;-70
2023/07/24 04:12:42;;;;;;;9.63;6.83;;;;;;;;;;5133475;28;21013;-70
2023/07/24 04:15:10;;;;;;;9.20;7.20;;;;;;;;;;5134096;28;20441;-70
2023/07/24 04:17:38;;;;;;;9.53;6.63;;;;;;;;;;5133578;28;20481;-70
2023/07/24 04:20:08;;;;;;;9.23;7.10;;;;;;;;;;5134093;27;20542;-70
2023/07/24 04:22:35;;;;;;;9.40;7.33;;;;;;;;;;5133475;28;20921;-70
2023/07/24 04:25:02;;;;;;;10.07;7.43;;;;;;;;;;5134000;28;20487;-70
2023/07/24 04:27:29;;;;;;;10.47;7.47;;;;;;;;;;5133787;28;20445;-70
2023/07/24 04:29:56;;;;;;;7.00;6.30;;;;;;;;;;5134677;27;20450;-70
2023/07/24 04:32:24;;;;;;;11.10;7.30;;;;;;;;;;5137973;27;20517;-71
2023/07/24 04:34:51;;;;;;;12.23;7.50;;;;;;;;;;5137975;27;20456;-68
2023/07/24 04:37:19;;;;;;;10.33;7.13;;;;;;;;;;5137573;27;21000;-70
2023/07/24 04:39:47;;;;;;;13.80;7.20;;;;;;;;;;5138374;27;20443;-69
2023/07/24 04:42:14;;;;;;;13.97;7.10;;;;;;;;;;5137567;27;20482;-69
2023/07/24 04:44:41;;;;;;;12.50;6.17;;;;;;;;;;5137528;27;20441;-69
2023/07/24 04:47:08;;;;;;;10.83;6.97;;;;;;;;;;5137687;27;20476;-69
2023/07/24 04:49:35;;;;;;;7.90;6.63;;;;;;;;;;5137914;27;20492;-69
2023/07/24 04:52:02;;;;;;;9.70;6.80;;;;;;;;;;5137587;27;20440;-70
2023/07/24 04:54:31;;;;;;;15.93;7.27;;;;;;;;;;5137232;27;20451;-69
2023/07/24 04:56:58;;;;;;;9.60;7.17;;;;;;;;;;5137498;27;20922;-69
2023/07/24 04:59:26;;;;;;;11.73;7.70;;;;;;;;;;5137416;27;20473;-69
2023/07/24 05:01:53;;;;;;;9.20;6.30;;;;;;;;;;5137248;27;20445;-69
2023/07/24 05:04:20;;;;;;;10.83;7.40;;;;;;;;;;5137271;27;20436;-69
2023/07/24 05:06:48;;;;;;;11.60;7.57;;;;;;;;;;5137399;27;20434;-69
2023/07/24 05:09:15;;;;;;;8.33;7.43;;;;;;;;;;5137706;27;20448;-69
2023/07/24 05:11:44;;;;;;;9.60;7.03;;;;;;;;;;5137054;27;20447;-68
2023/07/24 05:14:11;;;;;;;7.83;7.00;;;;;;;;;;5137282;27;20436;-69
2023/07/24 05:16:39;;;;;;;10.73;7.27;;;;;;;;;;5137520;27;20770;-68
2023/07/24 05:19:06;;;;;;;9.70;7.40;;;;;;;;;;5136757;27;20473;-69
2023/07/24 05:21:33;;;;;;;13.07;8.00;;;;;;;;;;5136937;27;20946;-68
2023/07/24 05:24:00;;;;;;;8.47;7.67;;;;;;;;;;5136812;27;20555;-68
2023/07/24 05:26:28;;;;;;;9.00;7.60;;;;;;;;;;5136788;27;20545;-68
2023/07/24 05:28:56;;;;;;;8.33;6.70;;;;;;;;;;5137233;27;20464;-69
2023/07/24 05:31:23;;;;;;;12.83;8.60;;;;;;;;;;5137156;27;20642;-69
2023/07/24 05:33:50;;;;;;;10.17;7.20;;;;;;;;;;5136986;27;20449;-68
2023/07/24 05:36:18;;;;;;;8.20;6.97;;;;;;;;;;5136558;27;20482;-68
2023/07/24 05:38:45;;;;;;;7.90;7.10;;;;;;;;;;5136446;27;20481;-68
2023/07/24 05:41:12;;;;;;;8.33;6.60;;;;;;;;;;5136173;27;20931;-68
2023/07/24 05:43:39;;;;;;;10.07;6.37;;;;;;;;;;5136472;27;20525;-69
2023/07/24 05:46:08;;;;;;;8.53;6.37;;;;;;;;;;5136460;27;20954;-69
2023/07/24 05:48:35;;;;;;;10.10;6.57;;;;;;;;;;5136684;27;20440;-69
2023/07/24 05:51:02;;;;;;;7.30;6.47;;;;;;;;;;5136901;27;20442;-68
2023/07/24 05:53:29;;;;;;;9.70;6.77;;;;;;;;;;5137065;27;20445;-68
2023/07/24 05:56:00;;;;;;;8.00;7.00;;;;;;;;;;5136327;27;20430;-68
2023/07/24 05:58:28;;;;;;;8.97;6.83;;;;;;;;;;5135945;27;20574;-68
2023/07/24 06:00:55;;;;;;;10.00;8.07;;;;;;;;;;5136679;27;20554;-69
2023/07/24 06:03:24;;;;;;;9.83;7.17;;;;;;;;;;5136422;27;20430;-69
2023/07/24 06:05:54;;;;;;;17.67;9.93;;;;;;;;;;5136513;27;20445;-69
2023/07/24 06:08:21;;;;;;;10.93;8.40;;;;;;;;;;5136348;27;20555;-68
2023/07/24 06:10:49;;;;;;;9.43;7.63;;;;;;;;;;5135969;27;20452;-68
2023/07/24 06:13:16;;;;;;;8.40;7.60;;;;;;;;;;5135814;27;20456;-68
2023/07/24 06:15:43;;;;;;;10.00;7.87;;;;;;;;;;5136178;27;20811;-68
2023/07/24 06:18:11;;;;;;;13.13;8.87;;;;;;;;;;5136079;27;20569;-68
2023/07/24 06:20:39;;;;;;;9.80;8.77;;;;;;;;;;5135904;27;20524;-69
2023/07/24 06:23:06;;;;;;;12.33;7.70;;;;;;;;;;5135985;27;20523;-69
2023/07/24 06:25:34;;;;;;;10.03;8.80;;;;;;;;;;5136307;27;20446;-68
2023/07/24 06:28:01;;;;;;;20.10;10.13;;;;;;;;;;5135842;27;20494;-67
2023/07/24 06:30:28;;;;;;;10.63;8.70;;;;;;;;;;5136200;27;20958;-66
2023/07/24 06:32:56;;;;;;;11.10;10.00;;;;;;;;;;5135584;27;20922;-66
2023/07/24 06:35:23;;;;;;;11.07;9.63;;;;;;;;;;5136096;27;20540;-66
2023/07/24 06:37:51;;;;;;;11.93;10.70;;;;;;;;;;5136248;27;20447;-66
2023/07/24 06:40:19;;;;;;;12.33;10.70;;;;;;;;;;5135334;27;20452;-67
2023/07/24 06:42:47;;;;;;;13.53;11.20;;;;;;;;;;5135625;27;20447;-66
2023/07/24 06:45:14;;;;;;;11.83;10.60;;;;;;;;;;5135552;27;20452;-67
2023/07/24 06:47:41;;;;;;;12.67;11.37;;;;;;;;;;5135174;27;20449;-67
2023/07/24 06:50:09;;;;;;;11.60;10.47;;;;;;;;;;5135412;27;20874;-67
2023/07/24 06:52:36;;;;;;;12.57;11.40;;;;;;;;;;5135754;27;20440;-67
2023/07/24 06:55:05;;;;;;;12.67;10.93;;;;;;;;;;5134633;27;20532;-67
2023/07/24 06:57:32;;;;;;;12.10;11.00;;;;;;;;;;5134896;27;20923;-68
2023/07/24 06:59:59;;;;;;;12.33;11.10;;;;;;;;;;5135289;27;20481;-67
2023/07/24 07:02:28;;;;;;;14.07;11.23;;;;;;;;;;5135297;27;20433;-67
2023/07/24 07:04:55;;;;;;;11.57;10.43;;;;;;;;;;5135098;27;20515;-67
2023/07/24 07:07:22;;;;;;;12.23;10.23;;;;;;;;;;5135154;27;20435;-67
2023/07/24 07:09:49;;;;;;;14.23;11.90;;;;;;;;;;5135051;27;20441;-67
2023/07/24 07:12:18;;;;;;;11.10;9.90;;;;;;;;;;5135004;27;20444;-67
2023/07/24 07:14:45;;;;;;;11.30;10.23;;;;;;;;;;5134558;27;20910;-67
2023/07/24 07:17:12;;;;;;;14.00;10.87;;;;;;;;;;5134677;27;20917;-67
2023/07/24 07:19:40;;;;;;;11.33;10.23;;;;;;;;;;5134779;27;20780;-67
2023/07/24 07:22:07;;;;;;;11.13;10.10;;;;;;;;;;5135129;27;20440;-67
2023/07/24 07:24:34;;;;;;;11.50;9.63;;;;;;;;;;5134438;27;20442;-67
2023/07/24 07:27:01;;;;;;;14.63;9.80;;;;;;;;;;5135104;27;20518;-67
2023/07/24 07:29:31;;;;;;;11.53;10.37;;;;;;;;;;5134850;27;20459;-67
2023/07/24 07:31:58;;;;;;;13.03;10.37;;;;;;;;;;5134997;27;20945;-67
2023/07/24 07:34:25;;;;;;;12.23;10.13;;;;;;;;;;5134736;27;20445;-67
2023/07/24 07:36:52;;;;;;;12.60;11.40;;;;;;;;;;5134643;27;20436;-67
2023/07/24 07:39:19;;;;;;;12.33;11.23;;;;;;;;;;5134065;27;20537;-67
2023/07/24 07:41:47;;;;;;;13.33;11.90;;;;;;;;;;5134222;27;20952;-67
2023/07/24 07:44:14;;;;;;;12.97;11.60;;;;;;;;;;5134827;27;20956;-67
2023/07/24 07:46:42;;;;;;;12.60;11.40;;;;;;;;;;5135030;27;20792;-68
2023/07/24 07:49:09;;;;;;;16.03;11.53;;;;;;;;;;5134385;27;20444;-67
2023/07/24 07:51:37;;;;;;;11.87;10.87;;;;;;;;;;5134036;27;20448;-67
2023/07/24 07:54:04;;;;;;;12.87;11.57;;;;;;;;;;5133896;27;20441;-68
2023/07/24 07:56:31;;;;;;;12.40;11.30;;;;;;;;;;5134088;27;20970;-67
2023/07/24 07:58:58;;;;;;;15.00;12.73;;;;;;;;;;5133692;27;21012;-68
2023/07/24 08:01:25;;;;;;;15.93;10.40;;;;;;;;;;5134208;27;20794;-68
2023/07/24 08:03:54;;;;;;;11.83;10.30;;;;;;;;;;5134318;27;20448;-67
2023/07/24 08:06:22;;;;;;;10.07;9.07;;;;;;;;;;5133524;27;20447;-68
2023/07/24 08:08:49;;;;;;;10.63;9.33;;;;;;;;;;5134304;27;20805;-67
2023/07/24 08:11:16;;;;;;;7.20;6.60;;;;;;;;;;5134082;28;20537;-66
2023/07/24 08:13:43;;;;;;;4.07;3.70;;;;;;;;;;5133857;28;20448;-66
2023/07/24 08:16:18;;;;;;;4.73;4.17;;;;;;;;;;5133737;28;20919;-66
2023/07/24 08:18:45;;;;;;;7.70;4.23;;;;;;;;;;5135016;28;20518;-67
2023/07/24 08:21:14;;;;;;;5.83;4.17;;;;;;;;;;5134149;28;20440;-67
2023/07/24 08:23:41;;;;;;;3.60;3.30;;;;;;;;;;5133695;28;20449;-67
2023/07/24 08:26:09;;;;;;;3.90;3.60;;;;;;;;;;5133939;28;20455;-67
2023/07/24 08:28:36;;;;;;;3.87;3.47;;;;;;;;;;5134137;28;20452;-67
2023/07/24 08:31:03;;;;;;;4.27;3.70;;;;;;;;;;5133567;28;20991;-67
2023/07/24 08:33:31;;;;;;;4.40;4.00;;;;;;;;;;5134022;28;20858;-67
2023/07/24 08:36:02;;;;;;;3.97;3.67;;;;;;;;;;5133618;28;20809;-68
2023/07/24 08:38:30;;;;;;;4.53;3.50;;;;;;;;;;5133942;28;20515;-68
2023/07/24 08:41:04;;;;;;;3.80;3.50;;;;;;;;;;5134010;28;20441;-68
2023/07/24 08:43:32;;;;;;;4.20;3.80;;;;;;;;;;5133937;28;20437;-68
2023/07/24 08:46:00;;;;;;;4.67;4.17;;;;;;;;;;5133469;28;20965;-68
2023/07/24 08:48:28;;;;;;;4.17;3.87;;;;;;;;;;5133807;28;20804;-68
2023/07/24 08:50:55;;;;;;;4.70;4.30;;;;;;;;;;5133783;28;20449;-68
2023/07/24 08:53:23;;;;;;;4.90;4.00;;;;;;;;;;5133495;28;20447;-68
2023/07/24 08:55:54;;;;;;;3.80;2.87;;;;;;;;;;5133378;28;20445;-68
2023/07/24 08:58:22;;;;;;;3.67;3.37;;;;;;;;;;5133762;28;20925;-68
2023/07/24 09:00:51;;;;;;;3.50;3.20;;;;;;;;;;5133328;27;20469;-68
2023/07/24 09:03:18;;;;;;;3.83;3.20;;;;;;;;;;5133515;28;20496;-68
2023/07/24 09:05:45;;;;;;;3.90;3.50;;;;;;;;;;5133378;28;20448;-68
2023/07/24 09:08:13;;;;;;;3.40;3.13;;;;;;;;;;5133774;28;20483;-68
2023/07/24 09:10:40;;;;;;;2.80;2.60;;;;;;;;;;5134166;28;20451;-68
2023/07/24 09:13:08;;;;;;;2.80;2.60;;;;;;;;;;5133761;28;20440;-68
2023/07/24 09:15:42;;;;;;;3.43;3.20;;;;;;;;;;5134096;27;20448;-68
2023/07/24 09:18:09;;;;;;;2.70;2.50;;;;;;;;;;5136650;27;20451;-68
2023/07/24 09:20:40;;;;;;;2.53;2.33;;;;;;;;;;5137145;27;20476;-68
2023/07/24 09:23:07;;;;;;;4.10;3.27;;;;;;;;;;5137036;27;20933;-68
2023/07/24 09:25:35;;;;;;;3.13;2.80;;;;;;;;;;5137044;27;20448;-68
2023/07/24 09:28:03;;;;;;;2.87;2.67;;;;;;;;;;5137377;27;20442;-68
2023/07/24 09:30:31;;;;;;;2.67;2.47;;;;;;;;;;5136795;27;20438;-68
2023/07/24 09:32:58;;;;;;;3.87;2.50;;;;;;;;;;5137212;27;20469;-68
2023/07/24 09:35:28;;;;;;;3.00;2.60;;;;;;;;;;5137046;27;20444;-68
2023/07/24 09:38:03;;;;;;;3.83;2.60;;;;;;;;;;5136635;27;20901;-68
2023/07/24 09:40:30;;;;;;;3.00;2.80;;;;;;;;;;5136844;27;20468;-68
2023/07/24 09:42:57;;;;;;;3.00;2.80;;;;;;;;;;5136564;27;20459;-68
2023/07/24 09:45:24;;;;;;;3.47;2.70;;;;;;;;;;5136473;27;20446;-68
2023/07/24 09:47:56;;;;;;;2.47;2.27;;;;;;;;;;5137490;27;20442;-68
2023/07/24 09:50:24;;;;;;;3.50;2.60;;;;;;;;;;5137114;27;20906;-68
2023/07/24 09:52:52;;;;;;;2.83;2.63;;;;;;;;;;5136307;27;20451;-68
2023/07/24 09:55:23;;;;;;;2.83;2.57;;;;;;;;;;5136626;27;20472;-68
2023/07/24 09:57:53;;;;;;;3.67;3.37;;;;;;;;;;5136405;27;20809;-68
2023/07/24 10:00:20;;;;;;;3.30;2.93;;;;;;;;;;5136668;27;20492;-68
2023/07/24 10:02:47;;;;;;;3.23;3.03;;;;;;;;;;5136416;27;20444;-68
2023/07/24 10:05:16;;;;;;;3.67;3.37;;;;;;;;;;5136708;27;20478;-68
2023/07/24 10:07:43;;;;;;;3.43;3.00;;;;;;;;;;5136291;27;20440;-68
2023/07/24 10:10:11;;;;;;;3.90;3.60;;;;;;;;;;5136120;27;20449;-68
2023/07/24 10:12:38;;;;;;;3.60;3.30;;;;;;;;;;5135884;27;20946;-68
2023/07/24 10:15:07;;;;;;;5.27;4.00;;;;;;;;;;5136169;27;20515;-67
2023/07/24 10:17:38;;;;;;;3.73;3.50;;;;;;;;;;5136052;27;20788;-68
2023/07/24 10:20:05;;;;;;;4.93;3.47;;;;;;;;;;5136031;27;20484;-68
2023/07/24 10:22:34;;;;;;;4.03;3.73;;;;;;;;;;5136039;27;20437;-68
2023/07/24 10:25:01;;;;;;;3.90;3.50;;;;;;;;;;5136019;27;20915;-68
2023/07/24 10:27:29;;;;;;;6.47;3.67;;;;;;;;;;5135290;27;20449;-68
2023/07/24 10:30:00;;;;;;;3.17;2.93;;;;;;;;;;5136371;27;20449;-68
2023/07/24 10:32:27;;;;;;;3.93;2.90;;;;;;;;;;5135887;27;20439;-68
2023/07/24 10:34:57;;;;;;;5.37;3.60;;;;;;;;;;5136431;27;20463;-68
2023/07/24 10:37:35;;;;;;;3.90;3.60;;;;;;;;;;5135724;27;20473;-68
2023/07/24 10:40:02;;;;;;;4.07;3.50;;;;;;;;;;5135900;27;20462;-68
2023/07/24 10:42:30;;;;;;;3.77;3.47;;;;;;;;;;5135765;27;20452;-68
2023/07/24 10:45:05;;;;;;;4.63;4.33;;;;;;;;;;5135276;27;20441;-67
2023/07/24 10:47:32;;;;;;;4.00;3.60;;;;;;;;;;5135682;27;20505;-68
2023/07/24 10:50:00;;;;;;;7.00;4.57;;;;;;;;;;5135542;27;20441;-67
2023/07/24 10:52:29;;;;;;;4.37;4.00;;;;;;;;;;5135077;27;21007;-68
2023/07/24 10:54:57;;;;;;;4.73;3.60;;;;;;;;;;5135472;27;20835;-68
2023/07/24 10:57:27;;;;;;;4.00;3.70;;;;;;;;;;5134806;27;20448;-68
2023/07/24 10:59:54;;;;;;;7.40;4.17;;;;;;;;;;5135153;27;20535;-67
2023/07/24 11:02:22;;;;;;;4.77;4.37;;;;;;;;;;5134844;27;20930;-68
2023/07/24 11:04:49;;;;;;;5.93;4.27;;;;;;;;;;5135734;27;20523;-68
2023/07/24 11:07:16;;;;;;;3.87;3.53;;;;;;;;;;5134877;27;20446;-68
2023/07/24 11:09:44;;;;;;;4.77;4.37;;;;;;;;;;5135284;27;20449;-67
2023/07/24 11:12:16;;;;;;;4.77;4.37;;;;;;;;;;5135118;27;20442;-67
2023/07/24 11:14:47;;;;;;;5.30;3.70;;;;;;;;;;5135680;27;20438;-67
2023/07/24 11:17:15;;;;;;;3.70;3.40;;;;;;;;;;5134987;27;20450;-67
2023/07/24 11:19:42;;;;;;;4.17;3.77;;;;;;;;;;5134682;27;20568;-67
2023/07/24 11:22:09;;;;;;;4.00;3.70;;;;;;;;;;5134545;27;20441;-67
2023/07/24 11:24:43;;;;;;;4.83;4.10;;;;;;;;;;5134929;27;20448;-67
2023/07/24 11:27:11;;;;;;;6.33;3.90;;;;;;;;;;5135487;27;20537;-67
2023/07/24 11:29:40;;;;;;;3.73;3.37;;;;;;;;;;5134941;27;20450;-68
2023/07/24 11:32:07;;;;;;;3.80;3.20;;;;;;;;;;5134597;27;20986;-70
2023/07/24 11:34:35;;;;;;;3.30;3.00;;;;;;;;;;5134845;27;20439;-69
2023/07/24 11:37:03;;;;;;;3.17;2.97;;;;;;;;;;5134588;27;20434;-70
2023/07/24 11:39:30;;;;;;;4.17;3.70;;;;;;;;;;5134073;27;20462;-69
2023/07/24 11:41:57;;;;;;;3.37;3.07;;;;;;;;;;5134304;27;20961;-70
2023/07/24 11:44:27;;;;;;;3.47;3.10;;;;;;;;;;5134289;27;20442;-69
2023/07/24 11:47:03;;;;;;;3.40;3.10;;;;;;;;;;5134487;27;20927;-69
2023/07/24 11:49:31;;;;;;;3.30;3.10;;;;;;;;;;5133514;27;20438;-70
2023/07/24 11:52:02;;;;;;;2.93;2.73;;;;;;;;;;5133546;27;20948;-69
2023/07/24 11:54:29;;;;;;;4.37;3.00;;;;;;;;;;5134320;27;20426;-69
2023/07/24 11:56:56;;;;;;;3.10;2.90;;;;;;;;;;5134626;27;20440;-69
2023/07/24 11:59:23;;;;;;;3.50;3.20;;;;;;;;;;5133464;27;20469;-69
2023/07/24 12:01:51;;;;;;;3.10;2.90;;;;;;;;;;5134272;27;20443;-69
2023/07/24 12:04:20;;;;;;;3.67;3.17;;;;;;;;;;5133893;27;20430;-69
2023/07/24 12:06:47;;;;;;;3.57;3.10;;;;;;;;;;5133914;27;20860;-70
2023/07/24 12:09:15;;;;;;;4.10;3.80;;;;;;;;;;5134267;27;20466;-69
2023/07/24 12:11:42;;;;;;;3.70;3.40;;;;;;;;;;5134460;27;20498;-69
2023/07/24 12:14:09;;;;;;;4.73;4.00;;;;;;;;;;5133881;28;20438;-69
2023/07/24 12:16:37;;;;;;;4.30;4.00;;;;;;;;;;5134089;28;20533;-69
2023/07/24 12:19:04;;;;;;;4.20;3.80;;;;;;;;;;5133907;28;20435;-68
2023/07/24 12:21:33;;;;;;;4.93;4.53;;;;;;;;;;5133735;28;20477;-68
2023/07/24 12:24:00;;;;;;;3.70;3.43;;;;;;;;;;5134006;28;20433;-68
2023/07/24 12:26:27;;;;;;;4.67;4.27;;;;;;;;;;5133586;28;20438;-69
2023/07/24 12:28:55;;;;;;;5.53;4.47;;;;;;;;;;5133933;27;20450;-68
2023/07/24 12:31:22;;;;;;;4.70;4.40;;;;;;;;;;5133412;28;20435;-67
2023/07/24 12:33:49;;;;;;;4.53;4.23;;;;;;;;;;5133538;28;20798;-68
2023/07/24 12:36:16;;;;;;;6.33;5.00;;;;;;;;;;5134023;28;20525;-68
2023/07/24 12:38:47;;;;;;;5.00;4.50;;;;;;;;;;5133503;28;20977;-68
2023/07/24 12:41:14;;;;;;;5.47;4.83;;;;;;;;;;5134124;27;20522;-68
2023/07/24 12:43:41;;;;;;;5.20;4.80;;;;;;;;;;5133955;28;20444;-68
2023/07/24 12:46:09;;;;;;;7.60;7.00;;;;;;;;;;5133919;28;20437;-68
2023/07/24 12:48:36;;;;;;;7.00;6.40;;;;;;;;;;5133493;28;20438;-68
2023/07/24 12:51:03;;;;;;;7.37;6.67;;;;;;;;;;5134714;27;20539;-67
2023/07/24 12:53:30;;;;;;;7.67;7.07;;;;;;;;;;5137499;27;20444;-68
2023/07/24 12:55:59;;;;;;;9.87;7.70;;;;;;;;;;5138194;27;20435;-67
2023/07/24 12:58:26;;;;;;;7.30;6.63;;;;;;;;;;5137644;27;20456;-68
2023/07/24 13:00:53;;;;;;;6.10;5.60;;;;;;;;;;5137134;27;20485;-68
2023/07/24 13:03:21;;;;;;;4.50;4.20;;;;;;;;;;5137683;27;20450;-68
2023/07/24 13:05:48;;;;;;;3.30;3.00;;;;;;;;;;5137831;27;20434;-68
2023/07/24 13:08:15;;;;;;;3.70;3.40;;;;;;;;;;5137590;27;20443;-68
2023/07/24 13:10:43;;;;;;;4.27;3.10;;;;;;;;;;5137580;27;20442;-68
2023/07/24 13:13:11;;;;;;;3.33;3.03;;;;;;;;;;5138033;27;20460;-68
2023/07/24 13:15:38;;;;;;;3.30;3.10;;;;;;;;;;5137149;27;20444;-68
2023/07/24 13:18:05;;;;;;;4.07;3.77;;;;;;;;;;5136969;27;20448;-68
2023/07/24 13:20:33;;;;;;;4.77;2.97;;;;;;;;;;5136914;27;21016;-68
2023/07/24 13:23:00;;;;;;;3.27;3.00;;;;;;;;;;5137210;27;20446;-68
2023/07/24 13:25:27;;;;;;;3.30;3.10;;;;;;;;;;5136956;27;20434;-67
2023/07/24 13:27:54;;;;;;;2.97;2.77;;;;;;;;;;5137181;27;20523;-67
2023/07/24 13:30:23;;;;;;;3.27;2.90;;;;;;;;;;5136814;27;20517;-67
2023/07/24 13:32:50;;;;;;;3.70;3.43;;;;;;;;;;5137150;27;20434;-68
2023/07/24 13:35:17;;;;;;;4.07;3.67;;;;;;;;;;5137186;27;20437;-68
2023/07/24 13:37:45;;;;;;;3.80;3.50;;;;;;;;;;5137208;27;20449;-68
2023/07/24 13:40:12;;;;;;;3.83;3.53;;;;;;;;;;5136707;27;20480;-68
2023/07/24 13:42:40;;;;;;;3.20;3.00;;;;;;;;;;5136772;27;20434;-68
2023/07/24 13:45:08;;;;;;;3.60;3.30;;;;;;;;;;5136831;27;20451;-69
2023/07/24 13:47:37;;;;;;;3.70;3.40;;;;;;;;;;5136420;27;20530;-68
2023/07/24 13:50:04;;;;;;;4.03;3.73;;;;;;;;;;5135677;27;20931;-68
2023/07/24 13:52:31;;;;;;;4.17;3.70;;;;;;;;;;5136004;27;21018;-68
2023/07/24 13:54:58;;;;;;;5.90;4.67;;;;;;;;;;5136526;27;20905;-68
2023/07/24 13:57:25;;;;;;;8.57;4.77;;;;;;;;;;5136293;27;20439;-68
2023/07/24 13:59:53;;;;;;;5.83;5.43;;;;;;;;;;5135680;27;20471;-68
2023/07/24 14:02:20;;;;;;;4.87;4.47;;;;;;;;;;5135967;27;20484;-68
2023/07/24 14:04:48;;;;;;;4.93;4.53;;;;;;;;;;5136641;27;20450;-67
2023/07/24 14:07:16;;;;;;;5.10;4.70;;;;;;;;;;5136449;27;20789;-68
2023/07/24 14:09:43;;;;;;;5.30;4.90;;;;;;;;;;5136373;27;20446;-68
2023/07/24 14:12:10;;;;;;;5.03;4.67;;;;;;;;;;5136612;27;20448;-67
2023/07/24 14:14:37;;;;;;;4.93;4.53;;;;;;;;;;5135877;27;21010;-69
2023/07/24 14:17:05;;;;;;;5.83;4.87;;;;;;;;;;5135986;27;20955;-68
2023/07/24 14:19:32;;;;;;;6.10;5.60;;;;;;;;;;5135752;27;20525;-68
2023/07/24 14:22:01;;;;;;;6.50;5.80;;;;;;;;;;5135832;27;21048;-68
2023/07/24 14:24:28;;;;;;;5.60;5.00;;;;;;;;;;5136031;27;20474;-68
2023/07/24 14:26:56;;;;;;;6.13;5.43;;;;;;;;;;5135722;27;20435;-68
2023/07/24 14:29:23;;;;;;;5.60;5.10;;;;;;;;;;5136297;27;20443;-69
2023/07/24 14:31:50;;;;;;;5.87;5.40;;;;;;;;;;5135995;27;20443;-67
2023/07/24 14:34:17;;;;;;;5.50;5.10;;;;;;;;;;5135533;27;20447;-68
2023/07/24 14:36:44;;;;;;;5.50;5.00;;;;;;;;;;5135792;27;20444;-68
2023/07/24 14:39:13;;;;;;;5.30;4.90;;;;;;;;;;5135803;27;20443;-68
2023/07/24 14:41:40;;;;;;;4.80;4.50;;;;;;;;;;5135356;27;21085;-68